This is the latest recevied weather packets stored in our database for station/object EA1FWM-12. If no packets are shown the sender has not sent any weather packets the latest 10 day(s).
| Time | Temp. | Humidity | Pressure | Rain* | Wind** | Luminosity | Snow |
|---|---|---|---|---|---|---|---|
| 1777227533 | 16.11° C | 65% | 1022.1 hPa | - | - | - | - |
| 1777225732 | 17.78° C | 58% | 1022 hPa | - | - | - | - |
| 1777224831 | 18.89° C | 54% | 1021.9 hPa | - | - | - | - |
| 1777223932 | 19.44° C | 52% | 1021.7 hPa | - | - | - | - |
| 1777223031 | 19.44° C | 51% | 1021.3 hPa | - | - | - | - |
| 1777222139 | 20° C | 51% | 1021 hPa | - | - | - | - |
| 1777221239 | 20° C | 51% | 1021.2 hPa | - | - | - | - |
| 1777220332 | 20° C | 51% | 1021.3 hPa | - | - | - | - |
| 1777219440 | 20.56° C | 51% | 1021.4 hPa | - | - | - | - |
| 1777218533 | 22.22° C | 48% | 1021.7 hPa | - | - | - | - |
| 1777216734 | 23.89° C | 46% | 1021.5 hPa | - | - | - | - |
| 1777215882 | 25° C | 47% | 1021.5 hPa | - | - | - | - |
| 1777215836 | 25° C | 47% | 1021.5 hPa | - | - | - | - |
| 1777214936 | 26.11° C | 45% | 1021.5 hPa | - | - | - | - |
| 1777214036 | 25.56° C | 47% | 1021.3 hPa | - | - | - | - |
| 1777213138 | 25.56° C | 47% | 1021.2 hPa | - | - | - | - |
| 1777212237 | 25.56° C | 49% | 1021.6 hPa | - | - | - | - |
| 1777211337 | 26.11° C | 48% | 1021.6 hPa | - | - | - | - |
| 1777209539 | 25° C | 52% | 1021.7 hPa | - | - | - | - |
| 1777207742 | 23.33° C | 54% | 1021.8 hPa | - | - | - | - |
| 1777205942 | 23.89° C | 53% | 1022.2 hPa | - | - | - | - |
| 1777205043 | 23.89° C | 53% | 1022.4 hPa | - | - | - | - |
| 1777204139 | 24.44° C | 51% | 1022.4 hPa | - | - | - | - |
| 1777203370 | 26.67° C | 49% | 1022.6 hPa | - | - | - | - |
| 1777203244 | 26.67° C | 49% | 1022.6 hPa | - | - | - | - |
* Rain since midnight (hover to see other rain measurements)
** Current wind speed in m/s (hover to see current wind gust speed)